Time;durP1;ratioP1;P1;durP2;ratioP2;P2;SDS_P1;SDS_P2;PMS_P1;PMS_P2;Temp;Humidity;BMP_temperature;BMP_pressure;BME280_temperature;BME280_humidity;BME280_pressure;Samples;Min_cycle;Max_cycle;Signal;HPM_P1;HPM_P2
2022/06/16 00:00:04;;;;;;;6.40;3.83;;;13.40;99.90;;;;;;5027581;28;20041;-28
2022/06/16 00:02:30;;;;;;;5.80;4.03;;;13.40;99.90;;;;;;5051956;28;20045;-28
2022/06/16 00:04:56;;;;;;;5.57;3.92;;;13.40;99.90;;;;;;5048428;28;20047;-29
2022/06/16 00:07:23;;;;;;;5.25;3.63;;;13.40;99.90;;;;;;5045943;28;20032;-29
2022/06/16 00:09:49;;;;;;;6.20;4.13;;;13.40;99.90;;;;;;5045112;28;20059;-28
2022/06/16 00:12:15;;;;;;;4.43;3.70;;;13.30;99.90;;;;;;5017105;28;20135;-28
2022/06/16 00:14:41;;;;;;;5.25;4.07;;;13.30;99.90;;;;;;5046246;28;20032;-28
2022/06/16 00:17:07;;;;;;;5.57;3.85;;;13.30;99.90;;;;;;5044619;28;20037;-29
2022/06/16 00:19:33;;;;;;;4.60;3.88;;;13.30;99.90;;;;;;5045517;28;20028;-28
2022/06/16 00:22:00;;;;;;;4.95;4.00;;;13.30;99.90;;;;;;5050665;28;20025;-28
2022/06/16 00:24:27;;;;;;;6.85;4.70;;;13.30;99.90;;;;;;5051462;28;20539;-29
2022/06/16 00:26:55;;;;;;;5.65;4.78;;;13.20;99.90;;;;;;5046809;28;20049;-28
2022/06/16 00:29:22;;;;;;;6.18;4.78;;;13.20;99.90;;;;;;5032877;28;20452;-28
2022/06/16 00:31:48;;;;;;;6.55;4.75;;;13.20;99.90;;;;;;5050737;28;20043;-28
2022/06/16 00:34:14;;;;;;;4.15;3.55;;;13.20;99.90;;;;;;5051591;28;20480;-28
2022/06/16 00:36:40;;;;;;;4.85;4.35;;;13.30;99.90;;;;;;5045246;28;20037;-26
2022/06/16 00:39:06;;;;;;;6.47;4.22;;;13.30;99.90;;;;;;5030777;28;20045;-26
2022/06/16 00:41:32;;;;;;;6.53;4.45;;;13.30;99.90;;;;;;5050913;28;20041;-26
2022/06/16 00:44:30;;;;;;;7.75;4.35;;;13.30;99.90;;;;;;5057034;28;20045;-25
2022/06/16 00:46:55;;;;;;;4.97;3.95;;;13.30;99.90;;;;;;5011376;28;20053;-25
2022/06/16 00:49:22;;;;;;;8.02;4.85;;;13.30;99.90;;;;;;5039115;28;20403;-26
2022/06/16 00:51:52;;;;;;;6.53;3.83;;;13.30;99.90;;;;;;5057707;28;20033;-26
2022/06/16 00:54:34;;;;;;;7.32;4.07;;;13.20;99.90;;;;;;5054683;28;20404;-25
2022/06/16 00:57:07;;;;;;;5.72;4.30;;;13.20;99.90;;;;;;5037395;28;20091;-26
2022/06/16 00:59:35;;;;;;;5.63;4.55;;;13.30;99.90;;;;;;5051718;28;20092;-25
2022/06/16 01:02:03;;;;;;;6.50;4.13;;;13.20;99.90;;;;;;5045802;28;20115;-26
2022/06/16 01:07:15;;;;;;;6.55;4.90;;;13.20;99.90;;;;;;5036188;28;20034;-26
2022/06/16 01:09:42;;;;;;;8.77;4.72;;;13.20;99.90;;;;;;5050187;28;20044;-26
2022/06/16 01:15:44;;;;;;;5.72;4.53;;;13.10;99.90;;;;;;5035597;28;20049;-26
2022/06/16 01:18:44;;;;;;;5.18;3.88;;;13.10;99.90;;;;;;5053860;28;20069;-26
2022/06/16 01:21:36;;;;;;;8.18;4.68;;;13.10;99.90;;;;;;5003290;28;20053;-25
2022/06/16 01:24:11;;;;;;;7.25;4.97;;;13.00;99.90;;;;;;5042189;28;20048;-26
2022/06/16 01:27:04;;;;;;;5.82;4.18;;;13.00;99.90;;;;;;5045518;28;20390;-25
2022/06/16 01:29:41;;;;;;;8.70;4.43;;;13.00;99.90;;;;;;5053446;28;20041;-26
2022/06/16 01:32:19;;;;;;;5.88;3.97;;;13.00;99.90;;;;;;5048071;28;20081;-26
2022/06/16 01:35:06;;;;;;;6.50;4.70;;;12.90;99.90;;;;;;5035064;28;20149;-26
2022/06/16 01:37:53;;;;;;;6.55;4.55;;;12.90;99.90;;;;;;5053203;28;20072;-26
2022/06/16 01:40:35;;;;;;;5.38;4.05;;;12.80;99.90;;;;;;5053245;28;20106;-26
2022/06/16 01:43:05;;;;;;;4.75;4.10;;;12.80;99.90;;;;;;5053300;28;20068;-26
2022/06/16 01:46:01;;;;;;;4.85;4.15;;;12.70;99.90;;;;;;5033709;28;20389;-26
2022/06/16 01:48:29;;;;;;;6.85;4.32;;;12.70;99.90;;;;;;5053337;28;20483;-26
2022/06/16 01:51:07;;;;;;;8.45;4.90;;;12.60;99.90;;;;;;5049117;28;20052;-26
2022/06/16 01:54:17;;;;;;;7.63;4.75;;;12.60;99.90;;;;;;5049408;28;20439;-26
2022/06/16 01:56:52;;;;;;;7.60;5.28;;;12.50;99.90;;;;;;5052156;28;20041;-26
2022/06/16 01:59:33;;;;;;;6.47;4.63;;;12.50;99.90;;;;;;5053204;28;20039;-26
2022/06/16 02:02:11;;;;;;;8.07;4.65;;;12.40;99.90;;;;;;5032953;28;20546;-25
2022/06/16 02:05:06;;;;;;;5.53;4.40;;;12.40;99.90;;;;;;5035478;28;20473;-25
2022/06/16 02:07:56;;;;;;;5.22;4.35;;;12.40;99.90;;;;;;5047721;28;20083;-26
2022/06/16 02:10:27;;;;;;;5.72;4.40;;;12.30;99.90;;;;;;5052565;28;20396;-26
2022/06/16 02:12:57;;;;;;;8.18;4.68;;;12.40;99.90;;;;;;5052540;28;20037;-25
2022/06/16 02:15:58;;;;;;;4.60;4.18;;;12.30;99.90;;;;;;5052037;28;20045;-27
2022/06/16 02:18:29;;;;;;;7.18;4.63;;;12.30;99.90;;;;;;5034479;28;20045;-25
2022/06/16 02:21:19;;;;;;;5.60;4.50;;;12.20;99.90;;;;;;5047032;28;20436;-25
2022/06/16 02:23:45;;;;;;;5.68;4.63;;;12.20;99.90;;;;;;5040796;28;20111;-25
2022/06/16 02:26:12;;;;;;;7.70;5.32;;;12.10;99.90;;;;;;5034026;28;20048;-25
2022/06/16 02:28:50;;;;;;;7.47;5.25;;;12.20;99.90;;;;;;5052438;28;20492;-25
2022/06/16 02:31:44;;;;;;;8.68;5.47;;;12.10;99.90;;;;;;5034286;28;20054;-26
2022/06/16 02:34:14;;;;;;;7.18;4.85;;;12.10;99.90;;;;;;5052945;28;20452;-25
2022/06/16 02:36:45;;;;;;;7.88;4.75;;;12.10;99.90;;;;;;5052283;28;20070;-25
2022/06/16 02:39:33;;;;;;;7.53;5.35;;;12.10;99.90;;;;;;5040515;28;20037;-25
2022/06/16 02:42:30;;;;;;;6.10;4.57;;;12.10;99.90;;;;;;5043209;28;20403;-26
2022/06/16 02:45:01;;;;;;;6.13;4.60;;;12.10;99.90;;;;;;5033985;28;20036;-26
2022/06/16 02:47:48;;;;;;;8.93;4.72;;;12.10;99.90;;;;;;5033844;28;20075;-26
2022/06/16 02:50:41;;;;;;;9.38;5.28;;;12.10;99.90;;;;;;5051805;28;20493;-26
2022/06/16 02:56:56;;;;;;;7.57;5.60;;;12.00;99.90;;;;;;4989821;28;20097;-26
2022/06/16 02:59:36;;;;;;;6.47;4.75;;;12.00;99.90;;;;;;5051613;28;20033;-26
2022/06/16 03:02:08;;;;;;;8.98;5.07;;;11.90;99.90;;;;;;5042291;28;20048;-26
2022/06/16 03:04:40;;;;;;;8.45;5.60;;;11.90;99.90;;;;;;5038459;28;20041;-26
2022/06/16 03:07:06;;;;;;;7.47;5.28;;;11.90;99.90;;;;;;5039283;28;20457;-26
2022/06/16 03:09:33;;;;;;;8.38;4.97;;;12.00;99.90;;;;;;5051863;28;20041;-26
2022/06/16 03:11:59;;;;;;;9.23;5.47;;;12.00;99.90;;;;;;5051448;28;20045;-26
2022/06/16 03:14:25;;;;;;;6.18;4.93;;;12.00;99.90;;;;;;5051668;28;20047;-26
2022/06/16 03:16:51;;;;;;;8.68;5.65;;;12.00;99.90;;;;;;5051962;28;20041;-26
2022/06/16 03:19:18;;;;;;;7.60;5.00;;;12.10;99.90;;;;;;5050837;28;20033;-26
2022/06/16 03:21:44;;;;;;;5.38;4.88;;;12.10;99.90;;;;;;5031894;28;20167;-27
2022/06/16 03:24:10;;;;;;;5.57;4.97;;;12.10;99.90;;;;;;5020840;28;20080;-26
2022/06/16 03:26:36;;;;;;;7.55;5.63;;;12.10;99.90;;;;;;5051294;28;20045;-26
2022/06/16 03:29:01;;;;;;;8.10;6.35;;;12.10;99.90;;;;;;5051508;28;20522;-27
2022/06/16 03:31:27;;;;;;;7.28;5.20;;;12.10;99.90;;;;;;5051729;28;20037;-26
2022/06/16 03:33:53;;;;;;;7.93;5.15;;;12.10;99.90;;;;;;5033736;28;20037;-26
2022/06/16 03:36:19;;;;;;;8.75;6.20;;;12.00;99.90;;;;;;5033183;28;20052;-26
2022/06/16 03:38:45;;;;;;;9.80;5.95;;;11.90;99.90;;;;;;5033308;28;20120;-26
2022/06/16 03:41:12;;;;;;;8.38;5.63;;;11.90;99.90;;;;;;5033474;28;20115;-26
2022/06/16 03:43:38;;;;;;;8.90;5.30;;;11.80;99.90;;;;;;5051159;28;20033;-26
2022/06/16 03:46:04;;;;;;;9.32;5.53;;;11.80;99.90;;;;;;5051165;28;20052;-26
2022/06/16 03:48:30;;;;;;;6.97;6.18;;;11.80;99.90;;;;;;5043987;28;20037;-26
2022/06/16 03:50:56;;;;;;;5.63;4.97;;;11.70;99.90;;;;;;5033086;28;20048;-26
2022/06/16 03:53:22;;;;;;;7.50;5.63;;;11.70;99.90;;;;;;5050589;28;20132;-26
2022/06/16 03:55:47;;;;;;;8.00;5.30;;;11.60;99.90;;;;;;5051112;28;20033;-26
2022/06/16 03:58:13;;;;;;;5.38;4.85;;;11.70;99.90;;;;;;5050298;28;20083;-26
2022/06/16 04:00:40;;;;;;;7.65;5.40;;;11.60;99.90;;;;;;5030819;28;20073;-26
2022/06/16 04:05:51;;;;;;;6.55;5.72;;;11.60;99.90;;;;;;5030828;28;20278;-25
2022/06/16 04:08:19;;;;;;;6.45;5.57;;;11.60;99.90;;;;;;5032341;28;20366;-25
2022/06/16 04:10:46;;;;;;;9.50;5.68;;;11.60;99.90;;;;;;5032440;28;20097;-25
2022/06/16 04:13:11;;;;;;;6.43;5.55;;;11.60;99.90;;;;;;5050246;28;20329;-25
2022/06/16 04:15:37;;;;;;;8.02;5.40;;;11.60;99.90;;;;;;5050515;28;20037;-24
2022/06/16 04:18:03;;;;;;;8.43;5.55;;;11.70;99.90;;;;;;5032215;28;20045;-26
2022/06/16 04:20:30;;;;;;;7.13;5.75;;;11.80;99.90;;;;;;5050489;28;20041;-26
2022/06/16 04:22:56;;;;;;;11.55;6.00;;;11.90;99.90;;;;;;5036247;28;20049;-26
2022/06/16 04:25:30;;;;;;;9.88;6.05;;;12.00;99.90;;;;;;5012637;28;20413;-26
2022/06/16 04:28:00;;;;;;;7.78;5.65;;;12.00;99.90;;;;;;5030150;28;20061;-26
2022/06/16 04:30:27;;;;;;;7.70;5.28;;;12.10;99.90;;;;;;5031190;28;20041;-26
2022/06/16 04:32:52;;;;;;;7.72;5.30;;;12.30;99.90;;;;;;5052820;28;20124;-26
2022/06/16 04:35:18;;;;;;;6.30;5.70;;;12.40;99.90;;;;;;5034735;28;20168;-26
2022/06/16 04:37:44;;;;;;;8.60;5.40;;;12.50;99.90;;;;;;5050395;28;20481;-25
2022/06/16 04:40:10;;;;;;;7.30;5.60;;;12.60;99.90;;;;;;5043988;28;20038;-26
2022/06/16 04:42:36;;;;;;;9.48;5.63;;;12.70;99.90;;;;;;5019187;28;20501;-26
2022/06/16 04:45:03;;;;;;;6.60;5.22;;;12.90;99.90;;;;;;5054586;28;20372;-25
2022/06/16 04:47:29;;;;;;;6.60;5.63;;;13.00;99.90;;;;;;5044434;28;20124;-25
2022/06/16 04:49:55;;;;;;;8.75;5.60;;;13.10;99.90;;;;;;5033976;28;20120;-25
2022/06/16 04:52:21;;;;;;;8.55;5.97;;;13.20;99.90;;;;;;5040066;28;20144;-25
2022/06/16 04:54:48;;;;;;;8.48;5.72;;;13.30;99.90;;;;;;5052926;28;20502;-25
2022/06/16 04:57:14;;;;;;;8.13;5.35;;;13.50;99.90;;;;;;5053142;28;20068;-25
2022/06/16 04:59:40;;;;;;;11.73;6.22;;;13.60;99.90;;;;;;5050509;28;20107;-25
2022/06/16 05:02:06;;;;;;;7.88;5.68;;;13.70;99.90;;;;;;5047479;28;20045;-25
2022/06/16 05:04:33;;;;;;;7.13;5.32;;;13.80;99.90;;;;;;5035699;28;20029;-25
2022/06/16 05:06:59;;;;;;;7.15;5.18;;;13.90;99.90;;;;;;5053269;28;20040;-25
2022/06/16 05:09:25;;;;;;;10.13;5.80;;;13.90;99.90;;;;;;5053601;28;20033;-25
2022/06/16 05:11:51;;;;;;;7.00;5.20;;;13.90;99.90;;;;;;5050372;28;20044;-25
2022/06/16 05:14:17;;;;;;;7.05;4.60;;;14.00;99.90;;;;;;5036409;28;20401;-25
2022/06/16 05:16:42;;;;;;;9.40;5.70;;;14.10;99.90;;;;;;5053754;28;20095;-25
2022/06/16 05:19:08;;;;;;;5.88;4.80;;;14.10;99.90;;;;;;5047437;28;20049;-26
2022/06/16 05:21:34;;;;;;;5.85;4.53;;;14.20;99.90;;;;;;5043563;28;20041;-26
2022/06/16 05:24:00;;;;;;;7.22;5.13;;;14.20;99.90;;;;;;5050259;28;20451;-26
2022/06/16 05:26:28;;;;;;;7.57;5.20;;;14.30;99.90;;;;;;5041322;28;20044;-26
2022/06/16 05:28:54;;;;;;;8.82;4.45;;;14.30;99.90;;;;;;5051249;28;20137;-26
2022/06/16 05:31:23;;;;;;;7.30;4.22;;;14.40;99.90;;;;;;5049442;28;20071;-25
2022/06/16 05:33:49;;;;;;;6.30;4.43;;;14.50;99.90;;;;;;5054647;28;20381;-26
2022/06/16 05:36:17;;;;;;;5.47;4.45;;;14.60;99.90;;;;;;5049068;28;20046;-25
2022/06/16 05:38:43;;;;;;;8.88;4.75;;;14.80;99.90;;;;;;5052159;28;20040;-26
2022/06/16 05:41:13;;;;;;;5.25;4.18;;;14.80;99.90;;;;;;5054578;28;20502;-25
2022/06/16 05:43:40;;;;;;;6.57;4.57;;;14.90;99.90;;;;;;5045566;28;20084;-26
2022/06/16 05:46:07;;;;;;;5.85;4.25;;;14.90;99.90;;;;;;5046370;28;20416;-26
2022/06/16 05:48:34;;;;;;;6.20;5.10;;;15.00;99.90;;;;;;5055074;28;20041;-25
2022/06/16 05:51:09;;;;;;;6.57;4.55;;;14.90;99.90;;;;;;5036505;28;20045;-33
2022/06/16 05:53:36;;;;;;;5.85;4.53;;;14.90;99.90;;;;;;5055049;28;20044;-27
2022/06/16 05:56:03;;;;;;;5.55;4.60;;;14.90;99.90;;;;;;5054467;28;20388;-26
2022/06/16 05:58:28;;;;;;;5.93;4.28;;;14.90;99.90;;;;;;5054426;28;20072;-26
2022/06/16 06:00:55;;;;;;;4.50;4.10;;;14.90;99.90;;;;;;5053872;28;20087;-27
2022/06/16 06:03:21;;;;;;;7.22;4.07;;;14.80;99.90;;;;;;5047497;28;20041;-26
2022/06/16 06:05:47;;;;;;;6.80;3.97;;;14.90;99.90;;;;;;5051762;28;20040;-26
2022/06/16 06:16:35;;;;;;;5.40;4.07;;;15.30;99.90;;;;;;5054547;28;20123;-27
2022/06/16 06:19:23;;;;;;;6.07;4.00;;;15.50;99.90;;;;;;5054742;28;20408;-26
2022/06/16 06:22:11;;;;;;;5.47;3.95;;;15.60;99.90;;;;;;5054033;28;20040;-26
2022/06/16 06:24:41;;;;;;;5.07;3.25;;;15.80;99.90;;;;;;5034016;28;20037;-26
2022/06/16 06:27:14;;;;;;;3.75;2.90;;;15.90;99.90;;;;;;5016629;28;20098;-26
2022/06/16 06:29:41;;;;;;;4.15;2.80;;;15.90;99.90;;;;;;5035969;28;20439;-26
2022/06/16 06:32:07;;;;;;;4.30;2.95;;;15.90;99.90;;;;;;5019588;28;20040;-26
2022/06/16 06:34:33;;;;;;;4.63;3.13;;;15.90;99.90;;;;;;5053629;28;20510;-26
2022/06/16 06:36:59;;;;;;;4.55;3.17;;;16.00;99.90;;;;;;5053329;28;20040;-26
2022/06/16 06:39:24;;;;;;;4.45;3.25;;;16.20;99.90;;;;;;5043099;28;20064;-26
2022/06/16 06:41:50;;;;;;;5.47;3.88;;;16.30;99.90;;;;;;5048150;28;20083;-26
2022/06/16 06:44:16;;;;;;;5.63;3.42;;;16.40;99.90;;;;;;5053437;28;20045;-26
2022/06/16 06:46:42;;;;;;;5.35;3.38;;;16.50;99.90;;;;;;5052555;28;20556;-26
2022/06/16 06:49:08;;;;;;;4.22;3.35;;;16.40;99.90;;;;;;5052688;28;20036;-26
2022/06/16 06:51:34;;;;;;;3.92;3.10;;;16.60;99.90;;;;;;5042796;28;20043;-26
2022/06/16 06:54:01;;;;;;;4.93;2.75;;;16.60;99.90;;;;;;5052483;28;20112;-27
2022/06/16 06:56:29;;;;;;;4.20;3.58;;;16.70;99.90;;;;;;5053497;28;20032;-26
2022/06/16 06:58:57;;;;;;;3.25;2.90;;;16.80;99.90;;;;;;5053285;28;20492;-26
2022/06/16 07:01:23;;;;;;;3.20;2.90;;;17.00;99.90;;;;;;5053728;28;20118;-26
2022/06/16 07:03:50;;;;;;;3.88;3.47;;;17.10;99.90;;;;;;5035055;28;20511;-26
2022/06/16 07:06:17;;;;;;;5.40;2.80;;;17.20;99.90;;;;;;5053378;28;20041;-26
2022/06/16 07:08:44;;;;;;;6.38;2.75;;;17.40;99.90;;;;;;5053164;28;20040;-26
2022/06/16 07:11:10;;;;;;;5.20;2.80;;;17.40;99.90;;;;;;5052442;28;20045;-26
2022/06/16 07:13:35;;;;;;;6.35;2.90;;;17.60;99.90;;;;;;5030372;28;20033;-26
2022/06/16 07:16:02;;;;;;;5.82;3.25;;;17.70;99.90;;;;;;5052979;28;20450;-27
2022/06/16 07:18:27;;;;;;;4.95;2.50;;;17.80;99.90;;;;;;5018220;28;20048;-27
2022/06/16 07:20:53;;;;;;;2.58;2.03;;;17.90;99.90;;;;;;5050667;28;20049;-27
2022/06/16 07:23:19;;;;;;;3.33;2.47;;;18.00;99.90;;;;;;5027617;28;20044;-26
2022/06/16 07:25:48;;;;;;;3.75;2.38;;;18.10;99.90;;;;;;5052933;28;20481;-26
2022/06/16 07:28:13;;;;;;;3.10;1.90;;;18.20;99.90;;;;;;5052385;28;20136;-26
2022/06/16 07:30:40;;;;;;;2.92;1.48;;;18.30;99.90;;;;;;5052490;28;20444;-26
2022/06/16 07:33:07;;;;;;;3.67;1.55;;;18.50;99.90;;;;;;5051132;28;20041;-26
2022/06/16 07:35:33;;;;;;;3.75;1.55;;;18.60;99.90;;;;;;5052021;28;20037;-27
2022/06/16 07:37:59;;;;;;;2.53;1.52;;;18.80;99.90;;;;;;5048309;28;20052;-26
2022/06/16 07:40:25;;;;;;;3.03;1.30;;;18.80;99.90;;;;;;5048705;28;20408;-26
2022/06/16 07:42:56;;;;;;;3.88;1.50;;;19.00;99.90;;;;;;5042648;28;20045;-26
2022/06/16 07:45:27;;;;;;;1.60;1.30;;;19.10;99.90;;;;;;5055193;28;20248;-27
2022/06/16 07:47:54;;;;;;;2.38;1.10;;;19.20;99.90;;;;;;5051362;28;20416;-26
2022/06/16 07:50:20;;;;;;;3.45;1.17;;;19.30;99.90;;;;;;5045577;28;20076;-27
2022/06/16 07:52:46;;;;;;;3.28;1.30;;;19.50;99.90;;;;;;5052445;28;20094;-26
2022/06/16 07:55:12;;;;;;;2.75;1.33;;;19.60;99.90;;;;;;5053150;28;20045;-26
2022/06/16 07:57:45;;;;;;;2.15;1.00;;;19.80;99.00;;;;;;5061566;28;20066;-26
2022/06/16 08:00:16;;;;;;;2.85;1.33;;;19.90;94.80;;;;;;5054178;28;20048;-26
2022/06/16 08:02:42;;;;;;;2.28;1.00;;;20.00;94.80;;;;;;5051382;28;20033;-26
2022/06/16 08:05:10;;;;;;;2.35;1.10;;;20.20;94.40;;;;;;5035004;28;20404;-26
2022/06/16 08:07:36;;;;;;;1.98;1.48;;;20.20;93.80;;;;;;5048907;28;20053;-25
2022/06/16 08:10:05;;;;;;;1.42;1.30;;;20.30;92.60;;;;;;5038967;28;20045;-25
2022/06/16 08:12:30;;;;;;;1.63;1.20;;;20.40;91.20;;;;;;5056492;28;20086;-26
2022/06/16 08:14:56;;;;;;;2.10;1.10;;;20.40;90.60;;;;;;5039455;28;20036;-26
2022/06/16 08:17:27;;;;;;;1.90;1.05;;;20.50;86.70;;;;;;5045565;28;20476;-25
2022/06/16 08:19:54;;;;;;;2.40;1.13;;;20.50;86.20;;;;;;5048243;28;20116;-26
2022/06/16 08:22:20;;;;;;;1.77;1.23;;;20.60;88.90;;;;;;5037467;28;20079;-26
2022/06/16 08:24:47;;;;;;;4.63;1.48;;;20.90;90.60;;;;;;5060256;28;20535;-26
2022/06/16 08:27:14;;;;;;;1.70;1.10;;;21.00;84.70;;;;;;5057952;28;20040;-26
2022/06/16 08:29:43;;;;;;;2.20;1.13;;;21.20;84.70;;;;;;5059645;28;20152;-26
2022/06/16 08:32:11;;;;;;;4.15;1.40;;;21.30;82.20;;;;;;5048204;28;20050;-27
2022/06/16 08:34:38;;;;;;;2.35;1.20;;;21.40;81.40;;;;;;5055179;28;20040;-26
2022/06/16 08:37:03;;;;;;;4.38;1.58;;;21.60;78.80;;;;;;5055647;28;20112;-26
2022/06/16 08:39:29;;;;;;;1.55;1.35;;;21.80;77.00;;;;;;5060393;28;20165;-26
2022/06/16 08:42:06;;;;;;;2.40;1.45;;;22.10;76.10;;;;;;5066177;28;20088;-26
2022/06/16 08:44:42;;;;;;;2.75;1.40;;;22.10;72.50;;;;;;5058459;28;20044;-26
2022/06/16 08:47:18;;;;;;;1.90;1.42;;;22.30;72.00;;;;;;5038366;28;20041;-26
2022/06/16 08:50:03;;;;;;;3.63;1.67;;;22.40;66.70;;;;;;5046997;28;20037;-26
2022/06/16 08:53:04;;;;;;;1.38;1.30;;;22.50;67.30;;;;;;5057770;28;20036;-26
2022/06/16 08:56:03;;;;;;;1.75;1.30;;;22.60;64.80;;;;;;5038164;28;20040;-26
2022/06/16 08:58:53;;;;;;;4.25;1.80;;;23.00;64.50;;;;;;5016065;28;20124;-26
2022/06/16 09:01:25;;;;;;;3.22;1.70;;;23.20;61.90;;;;;;5041997;28;20041;-26
2022/06/16 09:04:25;;;;;;;2.60;1.50;;;23.30;63.90;;;;;;5036797;28;20033;-27
2022/06/16 09:07:12;;;;;;;3.60;1.90;;;23.40;60.50;;;;;;5053256;28;20293;-27
2022/06/16 09:10:14;;;;;;;3.40;1.90;;;23.30;59.00;;;;;;5041483;28;20130;-27
2022/06/16 09:13:04;;;;;;;2.92;1.90;;;23.40;59.10;;;;;;5022281;28;20081;-26
2022/06/16 09:15:48;;;;;;;4.82;1.92;;;23.50;58.80;;;;;;5050934;28;20444;-26
2022/06/16 09:18:48;;;;;;;3.78;2.25;;;23.60;57.50;;;;;;5045295;28;20041;-26
2022/06/16 09:21:20;;;;;;;2.80;1.90;;;23.60;58.40;;;;;;5056035;28;20053;-26
2022/06/16 09:23:59;;;;;;;4.75;1.90;;;23.70;59.40;;;;;;5044355;28;20043;-26
2022/06/16 09:26:34;;;;;;;2.22;1.75;;;23.80;58.80;;;;;;5054257;28;20100;-26
2022/06/16 09:29:27;;;;;;;3.30;1.75;;;24.10;59.40;;;;;;5036791;28;20507;-26
2022/06/16 09:32:15;;;;;;;2.55;2.10;;;24.30;60.20;;;;;;5009482;28;20187;-27
2022/06/16 09:35:12;;;;;;;4.88;1.98;;;24.70;57.50;;;;;;5054789;28;20102;-26
2022/06/16 09:37:44;;;;;;;3.67;2.03;;;25.00;56.30;;;;;;5053964;28;20040;-27
2022/06/16 09:40:26;;;;;;;4.05;2.00;;;25.20;58.90;;;;;;5036253;28;20041;-27
2022/06/16 09:43:05;;;;;;;3.22;2.00;;;25.40;56.90;;;;;;5044444;28;20103;-26
2022/06/16 09:45:42;;;;;;;3.80;2.25;;;25.50;54.60;;;;;;5030311;28;20041;-27
2022/06/16 09:48:26;;;;;;;5.22;2.13;;;25.70;55.10;;;;;;5036053;28;20040;-27
2022/06/16 09:51:01;;;;;;;6.70;2.58;;;25.80;53.70;;;;;;5053455;28;20048;-26
2022/06/16 09:53:56;;;;;;;2.72;1.98;;;25.90;52.50;;;;;;5016621;28;20504;-28
2022/06/16 09:56:33;;;;;;;2.53;2.30;;;26.00;49.80;;;;;;5049841;28;20045;-27
2022/06/16 09:59:05;;;;;;;4.25;1.98;;;25.80;51.90;;;;;;5030365;28;20033;-27
2022/06/16 10:01:39;;;;;;;3.03;2.15;;;26.00;51.90;;;;;;5044630;28;20514;-27
2022/06/16 10:04:07;;;;;;;2.45;1.77;;;26.10;52.50;;;;;;5038749;28;20041;-27
2022/06/16 10:06:42;;;;;;;3.55;2.13;;;26.10;53.00;;;;;;5040811;28;20032;-27
2022/06/16 10:09:22;;;;;;;2.15;1.83;;;26.20;52.20;;;;;;5038040;28;20528;-27
2022/06/16 10:11:54;;;;;;;2.72;2.10;;;26.40;51.50;;;;;;5043059;28;20033;-27
2022/06/16 10:14:28;;;;;;;3.63;2.33;;;26.70;51.60;;;;;;5043000;28;20028;-27
2022/06/16 10:16:59;;;;;;;2.50;2.20;;;27.00;51.00;;;;;;5052562;28;20065;-27
2022/06/16 10:19:29;;;;;;;3.05;1.90;;;27.20;49.30;;;;;;5059829;28;20063;-27
2022/06/16 10:21:56;;;;;;;3.80;2.40;;;27.10;47.90;;;;;;5029405;28;20037;-27
2022/06/16 10:24:27;;;;;;;3.30;1.80;;;27.00;49.30;;;;;;5033197;28;20037;-28
2022/06/16 10:26:56;;;;;;;3.42;1.80;;;27.20;50.10;;;;;;5047954;28;20048;-28
2022/06/16 10:29:29;;;;;;;2.42;1.70;;;27.30;49.30;;;;;;5040299;28;20065;-28
2022/06/16 10:31:56;;;;;;;;;;;27.60;50.10;;;;;;5023073;28;20501;-28
2022/06/16 10:34:40;;;;;;;4.80;2.22;;;27.80;47.40;;;;;;5051330;28;20007;-28
2022/06/16 10:37:09;;;;;;;4.10;2.75;;;28.00;47.30;;;;;;5012118;28;20041;-28
2022/06/16 10:39:38;;;;;;;3.75;2.45;;;27.90;47.70;;;;;;5035765;28;20373;-28
2022/06/16 10:42:12;;;;;;;4.28;2.33;;;27.00;45.70;;;;;;5037589;28;20046;-28
2022/06/16 10:44:38;;;;;;;3.88;2.30;;;26.90;47.00;;;;;;5052460;28;20508;-27
2022/06/16 10:47:07;;;;;;;3.40;2.00;;;27.20;47.10;;;;;;5051002;28;20439;-27
2022/06/16 10:49:39;;;;;;;4.82;2.30;;;27.60;47.40;;;;;;5050276;28;20037;-28
2022/06/16 10:52:05;;;;;;;3.20;2.20;;;27.90;47.20;;;;;;5048023;28;20046;-28
2022/06/16 10:54:34;;;;;;;3.20;2.33;;;28.10;47.80;;;;;;5041244;28;20091;-28
2022/06/16 10:57:15;;;;;;;2.28;2.08;;;28.60;46.40;;;;;;5049394;28;20037;-28
2022/06/16 10:59:48;;;;;;;4.95;2.58;;;28.80;44.00;;;;;;5043246;28;20400;-28
2022/06/16 11:02:25;;;;;;;3.33;1.92;;;28.90;45.00;;;;;;5046120;28;20113;-28
2022/06/16 11:05:10;;;;;;;3.80;2.25;;;29.20;45.70;;;;;;5034790;28;20046;-28
2022/06/16 11:07:39;;;;;;;4.05;2.33;;;29.10;44.50;;;;;;5037297;28;20132;-28
2022/06/16 11:10:13;;;;;;;4.07;2.38;;;28.90;45.20;;;;;;5051769;28;20037;-29
2022/06/16 11:12:45;;;;;;;3.15;2.25;;;29.10;43.70;;;;;;5044147;28;20108;-28
2022/06/16 11:15:10;;;;;;;4.28;2.47;;;29.30;43.50;;;;;;5051364;28;20033;-28
2022/06/16 11:17:42;;;;;;;2.58;2.15;;;28.90;43.00;;;;;;5040334;28;20628;-28
2022/06/16 11:20:22;;;;;;;3.42;2.08;;;28.90;43.30;;;;;;5009693;28;20056;-28
2022/06/16 11:22:50;;;;;;;4.50;2.30;;;29.30;45.00;;;;;;5048335;28;20065;-28
2022/06/16 11:25:23;;;;;;;2.88;2.50;;;29.20;44.20;;;;;;5043536;28;20094;-28
2022/06/16 11:27:57;;;;;;;2.35;2.05;;;29.10;43.10;;;;;;5045638;28;20076;-28
2022/06/16 11:30:41;;;;;;;4.15;2.40;;;29.40;43.20;;;;;;5043918;28;20125;-27
2022/06/16 11:34:06;;;;;;;2.85;2.20;;;29.80;41.50;;;;;;5032770;28;20073;-28
2022/06/16 11:36:13;;;;;;;2.97;2.10;;;30.00;42.60;;;;;;5052230;28;21336;-28
2022/06/16 11:38:56;;;;;;;5.30;2.50;;;30.30;42.70;;;;;;5051585;28;20033;-28
2022/06/16 11:41:25;;;;;;;2.60;2.17;;;30.20;40.10;;;;;;5033747;28;20156;-27
2022/06/16 11:43:59;;;;;;;2.88;1.98;;;30.30;41.00;;;;;;5047318;28;20045;-28
2022/06/16 11:46:39;;;;;;;4.00;2.42;;;30.60;41.70;;;;;;5050282;28;20123;-28
2022/06/16 11:49:18;;;;;;;3.60;2.25;;;30.50;41.60;;;;;;5049294;28;20049;-27
2022/06/16 11:52:05;;;;;;;3.65;2.40;;;30.10;41.20;;;;;;5032756;28;20041;-28
2022/06/16 11:54:44;;;;;;;3.40;2.00;;;29.80;42.10;;;;;;5037794;28;20504;-28
2022/06/16 11:57:23;;;;;;;5.20;2.45;;;29.70;43.10;;;;;;5052137;28;20044;-27
2022/06/16 12:00:10;;;;;;;2.55;2.25;;;29.90;43.60;;;;;;5033844;28;20489;-28
2022/06/16 12:02:54;;;;;;;3.20;2.30;;;30.10;43.00;;;;;;5048430;28;20044;-28
2022/06/16 12:05:37;;;;;;;4.13;2.03;;;29.40;41.60;;;;;;5052274;28;20040;-28
2022/06/16 12:08:19;;;;;;;3.85;2.40;;;28.80;42.30;;;;;;5052223;28;20108;-27
2022/06/16 12:10:49;;;;;;;3.90;2.75;;;28.90;44.10;;;;;;5049136;28;20033;-27
2022/06/16 12:13:59;;;;;;;4.75;2.95;;;28.80;43.00;;;;;;5040533;28;20492;-27
2022/06/16 12:16:51;;;;;;;6.10;2.90;;;28.40;40.60;;;;;;4944247;28;20134;-26
2022/06/16 12:19:28;;;;;;;2.75;2.30;;;27.80;42.50;;;;;;5043226;28;20067;-27
2022/06/16 12:22:03;;;;;;;2.97;2.72;;;27.90;43.70;;;;;;5061038;28;20047;-30
2022/06/16 12:24:32;;;;;;;4.47;2.50;;;27.80;43.70;;;;;;5058556;28;20052;-27
2022/06/16 12:27:20;;;;;;;3.20;2.60;;;28.50;45.00;;;;;;5033700;28;20053;-27
2022/06/16 12:29:51;;;;;;;3.15;2.47;;;29.10;44.60;;;;;;5045639;28;20084;-27
2022/06/16 12:32:23;;;;;;;4.57;2.22;;;29.20;43.00;;;;;;5045213;28;20045;-27
2022/06/16 12:35:08;;;;;;;3.65;2.30;;;28.80;42.90;;;;;;5052122;28;20400;-27
2022/06/16 12:37:42;;;;;;;3.33;2.90;;;28.30;43.20;;;;;;5051801;28;20033;-26
2022/06/16 12:40:21;;;;;;;4.35;2.55;;;27.80;43.00;;;;;;5043879;28;20113;-26
2022/06/16 12:43:20;;;;;;;3.92;2.80;;;28.10;45.00;;;;;;5020517;28;20033;-26
2022/06/16 12:45:57;;;;;;;2.67;2.17;;;28.60;44.40;;;;;;5023814;28;20060;-28
2022/06/16 12:48:50;;;;;;;4.20;2.55;;;28.80;43.80;;;;;;5047082;28;20037;-28
2022/06/16 12:51:19;;;;;;;3.55;2.40;;;28.80;44.20;;;;;;5041886;28;20041;-27
2022/06/16 12:53:52;;;;;;;3.45;2.72;;;28.60;43.80;;;;;;5047488;28;20029;-27
2022/06/16 12:56:29;;;;;;;4.10;2.28;;;28.20;43.90;;;;;;5054716;28;20520;-28
2022/06/16 12:59:14;;;;;;;2.80;2.58;;;28.00;44.50;;;;;;5036421;28;20063;-27
2022/06/16 13:01:41;;;;;;;3.97;2.70;;;28.20;45.10;;;;;;5040399;28;20048;-30
2022/06/16 13:04:28;;;;;;;3.60;2.67;;;28.40;44.30;;;;;;5052576;28;20522;-32
2022/06/16 13:06:56;;;;;;;2.97;2.40;;;28.10;43.10;;;;;;5028304;28;20038;-31
2022/06/16 13:09:23;;;;;;;3.83;2.60;;;27.60;44.00;;;;;;5036442;28;20048;-31
2022/06/16 13:12:06;;;;;;;5.68;2.28;;;27.50;45.30;;;;;;5048180;28;20037;-30
2022/06/16 13:14:51;;;;;;;3.40;2.55;;;27.60;45.50;;;;;;5044062;28;20038;-30
2022/06/16 13:17:25;;;;;;;2.80;2.53;;;28.00;44.90;;;;;;5028648;28;20124;-30
2022/06/16 13:19:55;;;;;;;3.97;2.60;;;28.40;43.90;;;;;;5050344;28;20033;-30
2022/06/16 13:22:55;;;;;;;3.75;2.95;;;28.90;44.20;;;;;;5049485;28;20535;-30
2022/06/16 13:25:44;;;;;;;2.80;2.15;;;29.60;45.00;;;;;;5013183;28;20068;-31
2022/06/16 13:28:29;;;;;;;3.47;2.53;;;29.80;43.60;;;;;;5036360;28;20053;-31
2022/06/16 13:31:09;;;;;;;2.97;2.63;;;30.30;42.10;;;;;;5039144;28;20397;-31
2022/06/16 13:33:47;;;;;;;3.47;2.20;;;30.20;40.00;;;;;;5046271;28;20037;-31
2022/06/16 13:36:36;;;;;;;3.97;2.50;;;29.50;41.00;;;;;;5043020;28;20092;-31
2022/06/16 13:39:08;;;;;;;2.47;2.20;;;29.00;41.40;;;;;;5045660;28;20036;-29